Time;durP1;ratioP1;P1;durP2;ratioP2;P2;SDS_P1;SDS_P2;PMS_P1;PMS_P2;Temp;Humidity;BMP_temperature;BMP_pressure;BME280_temperature;BME280_humidity;BME280_pressure;Samples;Min_cycle;Max_cycle;Signal;HPM_P1;HPM_P2
2022/02/07 00:02:03;;;;;;;19.00;13.10;;;;;;;-1.58;64.52;96609.07;110159;1247;60505;-66
2022/02/07 00:04:37;;;;;;;20.60;13.20;;;;;;;-1.58;65.79;96605.12;110135;1247;70518;-66
2022/02/07 00:07:09;;;;;;;17.90;11.80;;;;;;;-1.58;66.15;96603.41;110315;1247;67852;-66
2022/02/07 00:09:39;;;;;;;13.50;10.00;;;;;;;-1.58;65.68;96600.13;110251;1244;69522;-66
2022/02/07 00:12:09;;;;;;;15.10;9.60;;;;;;;-1.57;66.21;96600.63;110316;1244;60496;-66
2022/02/07 00:14:39;;;;;;;15.40;9.20;;;;;;;-1.55;65.08;96592.35;110459;1246;60545;-66
2022/02/07 00:17:09;;;;;;;17.40;11.70;;;;;;;-1.54;65.18;96587.02;110402;1246;71562;-66
2022/02/07 00:19:38;;;;;;;16.50;10.50;;;;;;;-1.55;66.15;96570.63;110114;1247;67826;-66
2022/02/07 00:22:08;;;;;;;15.30;10.50;;;;;;;-1.53;65.73;96572.11;110340;1245;69048;-66
2022/02/07 00:24:38;;;;;;;13.30;9.20;;;;;;;-1.52;65.77;96576.54;110336;1246;60480;-66
2022/02/07 00:27:07;;;;;;;16.50;11.20;;;;;;;-1.50;65.79;96570.46;110155;1247;60472;-66
2022/02/07 00:29:37;;;;;;;16.80;12.20;;;;;;;-1.51;66.16;96558.23;110051;1247;72529;-66
2022/02/07 00:32:07;;;;;;;18.30;11.20;;;;;;;-1.51;66.41;96553.60;110087;1247;68651;-66
2022/02/07 00:34:38;;;;;;;11.70;7.80;;;;;;;-1.49;65.98;96551.96;110288;1244;69521;-65
2022/02/07 00:37:08;;;;;;;16.00;9.00;;;;;;;-1.46;65.12;96543.98;110029;1247;60577;-66
2022/02/07 00:42:35;;;;;;;9.20;5.80;;;;;;;-1.40;65.01;96529.58;110004;1247;71516;-66
2022/02/07 00:45:15;;;;;;;10.10;7.70;;;;;;;-1.39;65.12;96521.32;110360;1246;68701;-66
2022/02/07 00:47:45;;;;;;;14.00;10.30;;;;;;;-1.39;65.81;96515.17;110111;1247;69244;-66
2022/02/07 00:50:15;;;;;;;11.90;9.20;;;;;;;-1.40;65.56;96504.45;110143;1247;60542;-66
2022/02/07 00:52:44;;;;;;;11.50;8.90;;;;;;;-1.40;65.56;96498.81;110345;1244;59707;-66
2022/02/07 00:55:15;;;;;;;15.50;11.10;;;;;;;-1.40;66.10;96493.68;109977;1247;71452;-66
2022/02/07 00:57:45;;;;;;;16.80;11.60;;;;;;;-1.44;67.59;96489.23;110131;1247;67678;-66
2022/02/07 01:00:16;;;;;;;12.10;8.80;;;;;;;-1.48;67.06;96486.30;110064;1247;69435;-66
2022/02/07 01:02:46;;;;;;;14.30;9.00;;;;;;;-1.46;66.53;96482.46;110068;1247;60587;-67
2022/02/07 01:05:17;;;;;;;10.60;7.50;;;;;;;-1.44;66.17;96474.52;110087;1247;60542;-66
2022/02/07 01:07:50;;;;;;;16.00;9.30;;;;;;;-1.41;65.81;96463.48;110033;1247;72325;-66
2022/02/07 01:10:39;;;;;;;12.20;8.10;;;;;;;-1.36;65.67;96464.14;110111;1247;67841;-66
2022/02/07 01:16:11;;;;;;;11.00;8.30;;;;;;;-1.22;65.01;96457.92;110112;1247;60591;-66
2022/02/07 01:47:31;;;;;;;11.40;6.80;;;;;;;-0.75;62.18;96412.98;110242;1247;60487;-66
2022/02/07 01:50:19;;;;;;;8.80;5.50;;;;;;;-0.69;62.22;96405.52;110186;1247;71556;-67
2022/02/07 01:52:57;;;;;;;10.50;7.40;;;;;;;-0.64;61.68;96399.66;110252;1247;67772;-67
2022/02/07 01:56:12;;;;;;;7.70;6.30;;;;;;;-0.62;61.52;96405.02;110221;1246;68777;-65
2022/02/07 01:58:24;;;;;;;10.50;7.30;;;;;;;-0.61;61.66;96396.59;110169;1247;60469;-66
2022/02/07 02:00:54;;;;;;;9.00;6.00;;;;;;;-0.60;61.67;96386.80;110083;1247;60533;-65
2022/02/07 02:03:26;;;;;;;8.20;4.80;;;;;;;-0.53;61.48;96389.07;110060;1247;72176;-65
2022/02/07 02:06:03;;;;;;;9.80;7.00;;;;;;;-0.49;61.12;96390.27;110287;1246;67198;-66
2022/02/07 02:08:51;;;;;;;9.10;6.70;;;;;;;-0.47;61.19;96385.41;110100;1246;68695;-65
2022/02/07 02:11:23;;;;;;;10.70;7.10;;;;;;;-0.47;61.17;96378.56;110056;1247;60535;-66
2022/02/07 02:14:16;;;;;;;10.70;7.80;;;;;;;-0.46;61.34;96373.39;110111;1247;60519;-65
2022/02/07 02:17:02;;;;;;;9.90;6.30;;;;;;;-0.47;61.31;96374.27;110338;1246;72329;-66
2022/02/07 02:20:27;;;;;;;15.00;9.90;;;;;;;-0.48;61.43;96374.30;110594;1244;67601;-66
2022/02/07 02:47:35;;;;;;;11.20;7.30;;;;;;;-0.34;60.86;96282.95;110094;1247;67723;-65
2022/02/07 02:50:34;;;;;;;11.10;7.80;;;;;;;-0.33;60.49;96280.64;110177;1247;68670;-65
2022/02/07 02:53:13;;;;;;;10.30;6.70;;;;;;;-0.31;60.33;96270.11;109783;1247;60514;-66
2022/02/07 02:55:46;;;;;;;7.70;5.70;;;;;;;-0.28;59.99;96256.45;110159;1247;60531;-66
2022/02/07 02:58:21;;;;;;;10.60;7.40;;;;;;;-0.23;59.97;96253.48;110378;1247;71472;-66
2022/02/07 03:00:54;;;;;;;9.40;5.80;;;;;;;-0.20;60.45;96254.15;109908;1247;68144;-66
2022/02/07 03:03:44;;;;;;;8.10;5.50;;;;;;;-0.17;60.64;96249.59;110052;1247;68610;-66
2022/02/07 03:06:14;;;;;;;10.70;7.60;;;;;;;-0.14;59.94;96242.58;110309;1245;60563;-66
2022/02/07 03:08:44;;;;;;;10.50;6.10;;;;;;;-0.10;60.30;96240.34;110063;1247;60425;-66
2022/02/07 03:11:18;;;;;;;;;;;;;;;-0.06;60.08;96240.31;110123;1247;72236;-66
2022/02/07 03:13:56;;;;;;;6.50;4.90;;;;;;;0.02;59.51;96237.70;110124;1245;68584;-66
2022/02/07 03:16:38;;;;;;;8.30;4.70;;;;;;;0.11;58.85;96245.30;110378;1247;67640;-66
2022/02/07 03:19:15;;;;;;;9.30;5.40;;;;;;;0.24;58.39;96237.61;110066;1246;60577;-66
2022/02/07 03:21:48;;;;;;;9.00;5.60;;;;;;;0.32;58.10;96231.52;110235;1247;60484;-66
2022/02/07 03:24:19;;;;;;;10.90;5.20;;;;;;;0.40;57.70;96235.44;110245;1247;72414;-66
2022/02/07 03:26:56;;;;;;;7.20;4.60;;;;;;;0.46;57.67;96230.30;110348;1246;68271;-66
2022/02/07 03:29:29;;;;;;;8.00;5.30;;;;;;;0.55;57.57;96225.92;110563;1247;69414;-66
2022/02/07 03:31:59;;;;;;;8.80;4.90;;;;;;;0.61;56.94;96222.16;110229;1247;60502;-66
2022/02/07 03:34:47;;;;;;;6.80;5.00;;;;;;;0.70;56.70;96213.95;110356;1246;60427;-66
2022/02/07 03:37:20;;;;;;;7.60;5.30;;;;;;;0.77;56.34;96207.93;110088;1246;71715;-66
2022/02/07 03:39:50;;;;;;;7.80;5.00;;;;;;;0.82;55.68;96204.74;110215;1247;68559;-66
2022/02/07 03:42:21;;;;;;;8.30;5.70;;;;;;;0.86;56.33;96196.31;109956;1247;68644;-66
2022/02/07 03:45:01;;;;;;;;;;;;;;;0.90;55.99;96193.00;110173;1246;60547;-67
2022/02/07 03:47:34;;;;;;;8.70;5.00;;;;;;;0.94;55.54;96192.98;110328;1245;60446;-67
2022/02/07 03:50:05;;;;;;;;;;;;;;;0.97;55.42;96190.20;110387;1244;70876;-66
2022/02/07 03:52:38;;;;;;;9.70;4.90;;;;;;;1.00;56.05;96192.29;110457;1246;68702;-66
2022/02/07 03:55:08;;;;;;;;;;;;;;;1.04;56.17;96192.09;109987;1247;68625;-66
2022/02/07 03:57:40;;;;;;;7.60;4.90;;;;;;;1.11;54.83;96187.43;110136;1247;60580;-66
2022/02/07 04:00:11;;;;;;;7.60;4.10;;;;;;;1.16;55.44;96189.38;110419;1246;60433;-66
2022/02/07 04:02:49;;;;;;;8.30;5.10;;;;;;;1.23;54.59;96194.30;110488;1246;71592;-67
2022/02/07 04:08:18;;;;;;;8.00;5.30;;;;;;;1.26;55.66;96180.23;110497;1246;69458;-67
2022/02/07 04:13:34;;;;;;;7.90;4.80;;;;;;;1.26;56.35;96162.39;110531;1246;60543;-67
2022/02/07 04:16:08;;;;;;;9.70;5.80;;;;;;;1.29;56.25;96161.02;110542;1247;72337;-66
2022/02/07 04:21:37;;;;;;;6.50;4.10;;;;;;;1.29;55.69;96169.07;110554;1244;69278;-68
2022/02/07 04:24:09;;;;;;;10.70;5.50;;;;;;;1.37;56.26;96172.23;110198;1247;60463;-66
2022/02/07 04:26:45;;;;;;;7.20;5.30;;;;;;;1.61;55.98;96166.25;110319;1247;60535;-66
2022/02/07 04:29:15;;;;;;;6.50;4.80;;;;;;;1.85;55.32;96163.48;110232;1246;72392;-66
2022/02/07 04:31:45;;;;;;;9.80;6.60;;;;;;;2.00;54.96;96162.98;110181;1247;68581;-66
2022/02/07 04:34:18;;;;;;;10.00;6.30;;;;;;;2.17;54.60;96159.73;110188;1247;68608;-65
2022/02/07 04:36:53;;;;;;;;;;;;;;;2.17;54.82;96157.71;109982;1247;60539;-66
2022/02/07 04:39:24;;;;;;;9.30;5.90;;;;;;;2.15;54.82;96156.10;110008;1247;60529;-66
2022/02/07 04:41:58;;;;;;;7.60;5.80;;;;;;;2.13;54.69;96156.93;110390;1247;71391;-67
2022/02/07 04:44:36;;;;;;;8.10;5.60;;;;;;;2.16;54.78;96152.45;110471;1247;67791;-67
2022/02/07 04:47:18;;;;;;;9.20;5.80;;;;;;;2.22;55.03;96153.29;110347;1244;68630;-66
2022/02/07 04:52:58;;;;;;;7.20;5.40;;;;;;;2.38;55.26;96151.96;110099;1250;60860;-66
2022/02/07 04:58:29;;;;;;;6.20;5.30;;;;;;;2.39;55.30;96137.45;110185;1247;68945;-66
2022/02/07 05:01:11;;;;;;;7.50;4.60;;;;;;;2.39;55.65;96127.14;110440;1244;69451;-66
2022/02/07 05:03:47;;;;;;;10.40;6.40;;;;;;;2.47;55.54;96131.81;110196;1247;60664;-68
2022/02/07 05:14:50;;;;;;;6.50;4.30;;;;;;;2.61;55.67;96135.13;110171;1247;69005;-68
2022/02/07 05:17:21;;;;;;;8.00;5.90;;;;;;;2.64;55.76;96133.52;110287;1247;60500;-66
2022/02/07 05:20:08;;;;;;;7.70;5.50;;;;;;;2.69;55.13;96137.17;110451;1246;60615;-66
2022/02/07 05:22:43;;;;;;;8.90;5.50;;;;;;;2.72;55.25;96116.02;110264;1247;71291;-67
2022/02/07 05:25:31;;;;;;;6.00;5.10;;;;;;;2.73;55.39;96090.68;110335;1247;68398;-68
2022/02/07 05:28:20;;;;;;;7.50;5.20;;;;;;;2.73;54.81;96091.35;110490;1246;69533;-68
2022/02/07 05:31:08;;;;;;;6.80;4.90;;;;;;;2.76;55.22;96113.49;110535;1245;60529;-68
2022/02/07 05:33:55;;;;;;;9.70;5.50;;;;;;;2.75;55.65;96115.66;110476;1246;60474;-68
2022/02/07 05:36:49;;;;;;;7.50;5.40;;;;;;;2.74;55.49;96114.32;110270;1247;72946;-65
2022/02/07 05:39:36;;;;;;;8.60;5.70;;;;;;;2.78;55.12;96105.13;110445;1247;68566;-66
2022/02/07 05:42:35;;;;;;;9.90;6.10;;;;;;;2.87;55.08;96103.40;110297;1246;69572;-66
2022/02/07 05:45:22;;;;;;;8.50;5.60;;;;;;;2.90;55.25;96095.27;110260;1247;60934;-66
2022/02/07 05:48:26;;;;;;;9.20;6.10;;;;;;;2.91;55.43;96091.25;110460;1247;60547;-67
2022/02/07 05:51:04;;;;;;;9.90;7.40;;;;;;;2.92;55.91;96094.30;110463;1244;71833;-66
2022/02/07 05:53:53;;;;;;;5.80;4.90;;;;;;;2.92;56.33;96093.62;110401;1247;67392;-66
2022/02/07 05:56:35;;;;;;;37.50;26.20;;;;;;;2.92;56.85;96084.14;110289;1247;69416;-68
2022/02/07 05:59:31;;;;;;;22.40;16.30;;;;;;;2.91;57.06;96079.55;110001;1247;60500;-68
2022/02/07 06:02:13;;;;;;;11.30;6.50;;;;;;;2.92;57.86;96079.67;110217;1247;60450;-67
2022/02/07 06:04:42;;;;;;;8.90;6.40;;;;;;;2.94;58.47;96081.04;110323;1247;71555;-66
2022/02/07 06:07:13;;;;;;;8.80;6.40;;;;;;;2.98;58.40;96085.83;110232;1247;68629;-66
2022/02/07 06:09:43;;;;;;;9.80;6.80;;;;;;;3.06;60.42;96088.21;110021;1247;68552;-66
2022/02/07 06:12:13;;;;;;;;;;;;;;;3.19;60.62;96093.10;110105;1247;60865;-65
2022/02/07 06:14:43;;;;;;;8.60;6.30;;;;;;;3.26;60.66;96098.11;110138;1247;60482;-66
2022/02/07 06:17:13;;;;;;;7.80;6.20;;;;;;;3.30;60.61;96099.03;109897;1249;72935;-66
2022/02/07 06:19:43;;;;;;;9.70;6.20;;;;;;;3.33;60.78;96105.58;110090;1247;67913;-65
2022/02/07 06:22:13;;;;;;;9.10;6.60;;;;;;;3.40;60.71;96101.87;110045;1247;69207;-66
2022/02/07 06:24:44;;;;;;;9.10;6.40;;;;;;;3.46;60.98;96081.69;110271;1247;60533;-66
2022/02/07 06:27:13;;;;;;;10.30;7.30;;;;;;;3.52;61.32;96077.15;110040;1246;60956;-68
2022/02/07 06:29:43;;;;;;;8.30;6.60;;;;;;;3.59;61.56;96084.44;110402;1246;72393;-66
2022/02/07 06:32:12;;;;;;;10.70;8.30;;;;;;;3.55;62.15;96087.08;110235;1247;69173;-68
2022/02/07 06:34:42;;;;;;;9.00;6.60;;;;;;;3.61;63.02;96085.14;110420;1246;68661;-66
2022/02/07 06:37:14;;;;;;;8.40;6.40;;;;;;;3.74;63.36;96078.42;110390;1247;60613;-66
2022/02/07 06:39:44;;;;;;;7.30;6.40;;;;;;;3.80;63.35;96080.10;110347;1246;60850;-66
2022/02/07 06:42:15;;;;;;;;;;;;;;;3.90;63.29;96087.04;110153;1247;72328;-68
2022/02/07 06:44:45;;;;;;;8.80;6.40;;;;;;;3.95;63.21;96086.66;110219;1247;68238;-66
2022/02/07 06:47:15;;;;;;;9.50;6.80;;;;;;;3.99;62.98;96083.67;110412;1247;68714;-67
2022/02/07 06:49:44;;;;;;;8.40;5.80;;;;;;;4.01;63.02;96070.06;110438;1247;60455;-66
2022/02/07 06:52:13;;;;;;;10.00;5.60;;;;;;;4.05;62.93;96068.96;110260;1247;60482;-66
2022/02/07 06:54:43;;;;;;;8.70;6.10;;;;;;;4.04;62.90;96063.98;110012;1248;71427;-66
2022/02/07 06:57:15;;;;;;;8.10;6.50;;;;;;;4.05;63.16;96048.90;110072;1247;68551;-65
2022/02/07 06:59:47;;;;;;;6.90;6.10;;;;;;;4.05;63.45;96048.73;110489;1246;68539;-65
2022/02/07 07:02:25;;;;;;;10.50;6.10;;;;;;;4.07;63.85;96054.11;109774;1248;483288;-66
2022/02/07 07:05:02;;;;;;;9.40;6.60;;;;;;;4.13;63.75;96058.09;110192;1247;60484;-67
2022/02/07 07:07:31;;;;;;;9.00;6.60;;;;;;;4.12;63.84;96052.95;110198;1248;71602;-65
2022/02/07 07:10:00;;;;;;;6.50;5.50;;;;;;;4.09;64.44;96044.00;110082;1247;69512;-68
2022/02/07 07:12:34;;;;;;;8.20;6.20;;;;;;;4.10;64.51;96042.75;110088;1247;68690;-67
2022/02/07 07:15:13;;;;;;;8.40;6.70;;;;;;;4.06;65.69;96036.11;110051;1249;60559;-68
2022/02/07 07:17:44;;;;;;;8.50;6.40;;;;;;;4.06;65.82;96026.48;110253;1247;60430;-68
2022/02/07 07:20:13;;;;;;;6.70;5.10;;;;;;;4.08;65.49;96035.84;110191;1247;72502;-66
2022/02/07 07:22:43;;;;;;;9.20;6.30;;;;;;;4.10;66.11;96037.42;110188;1247;68625;-65
2022/02/07 07:25:17;;;;;;;8.40;5.30;;;;;;;4.10;66.64;96027.06;110014;1248;69056;-67
2022/02/07 07:30:39;;;;;;;6.70;5.80;;;;;;;4.19;66.19;96004.90;110199;1248;60468;-66
2022/02/07 07:33:14;;;;;;;8.70;6.60;;;;;;;4.18;67.22;96007.52;110319;1246;72424;-66
2022/02/07 07:35:44;;;;;;;7.60;6.00;;;;;;;4.19;67.56;96019.58;110460;1247;68827;-66
2022/02/07 07:38:13;;;;;;;8.00;6.20;;;;;;;4.20;67.81;96024.63;110077;1250;69323;-65
2022/02/07 07:40:44;;;;;;;8.40;6.10;;;;;;;4.20;67.97;96029.84;110111;1247;60486;-66
2022/02/07 07:43:20;;;;;;;7.30;5.80;;;;;;;4.22;67.73;96031.23;110399;1247;60449;-65
2022/02/07 07:46:25;;;;;;;5.10;4.40;;;;;;;4.20;68.16;96032.22;110312;1247;73002;-65
2022/02/07 07:49:31;;;;;;;6.80;5.20;;;;;;;4.24;68.16;96034.02;110114;1248;68693;-67
2022/02/07 07:52:30;;;;;;;7.60;5.70;;;;;;;4.27;68.12;96035.68;110031;1247;70219;-69
2022/02/07 08:03:40;;;;;;;6.70;5.10;;;;;;;4.36;67.87;96048.60;110437;1244;68567;-66
2022/02/07 08:06:17;;;;;;;7.60;5.70;;;;;;;4.38;68.41;96051.16;110064;1250;68789;-68
2022/02/07 08:09:12;;;;;;;7.30;5.80;;;;;;;4.36;69.03;96044.37;110108;1247;60541;-69
2022/02/07 08:11:40;;;;;;;7.70;6.60;;;;;;;4.39;68.96;96034.02;110224;1247;60495;-69
2022/02/07 08:14:09;;;;;;;7.20;5.80;;;;;;;4.39;69.24;96024.55;110258;1248;71752;-68
2022/02/07 08:16:38;;;;;;;8.40;6.20;;;;;;;4.41;69.15;96015.25;109966;1247;67635;-69
2022/02/07 08:19:08;;;;;;;7.10;6.30;;;;;;;4.40;69.29;96008.42;110540;1245;69551;-68
2022/02/07 08:21:37;;;;;;;7.10;6.10;;;;;;;4.42;69.25;95997.60;110138;1247;60527;-67
2022/02/07 08:24:07;;;;;;;8.70;5.60;;;;;;;4.42;69.21;95990.31;110320;1245;60423;-69
2022/02/07 08:26:36;;;;;;;7.70;5.90;;;;;;;4.45;69.10;95991.13;110207;1247;72209;-68
2022/02/07 08:29:05;;;;;;;9.40;6.00;;;;;;;4.49;69.02;95998.11;110150;1247;68517;-68
2022/02/07 08:31:34;;;;;;;7.90;5.90;;;;;;;4.53;69.08;96000.77;110352;1247;69116;-68
2022/02/07 08:34:03;;;;;;;7.60;6.10;;;;;;;4.58;68.76;95995.94;110271;1247;60479;-69
2022/02/07 08:36:32;;;;;;;7.00;5.90;;;;;;;4.60;68.70;96001.42;110271;1247;60538;-67
2022/02/07 08:39:08;;;;;;;5.50;4.70;;;;;;;4.65;68.40;95997.98;110162;1247;71633;-68
2022/02/07 08:41:36;;;;;;;;;;;;;;;4.70;68.06;96001.29;110395;1247;68177;-68
2022/02/07 08:44:05;;;;;;;6.70;4.40;;;;;;;4.73;68.10;95999.33;110214;1247;68601;-68
2022/02/07 08:46:34;;;;;;;5.90;5.00;;;;;;;4.77;67.74;95998.88;110167;1248;60594;-69
2022/02/07 08:49:05;;;;;;;5.80;4.30;;;;;;;4.80;67.38;95992.45;110260;1247;60542;-68
2022/02/07 08:51:35;;;;;;;7.30;5.30;;;;;;;4.82;67.60;95986.28;110234;1247;71743;-68
2022/02/07 08:54:06;;;;;;;6.80;5.60;;;;;;;4.84;67.57;95988.19;110242;1247;67938;-69
2022/02/07 08:56:47;;;;;;;6.50;4.80;;;;;;;4.88;67.40;95986.55;110262;1247;70048;-69
2022/02/07 08:59:16;;;;;;;8.90;6.10;;;;;;;4.88;67.35;95987.89;110230;1247;60487;-68
2022/02/07 09:02:04;;;;;;;12.20;7.30;;;;;;;4.89;67.30;95994.91;110433;1247;60403;-69
2022/02/07 09:04:46;;;;;;;8.20;6.10;;;;;;;4.92;67.07;95986.73;110571;1245;70771;-68
2022/02/07 09:07:31;;;;;;;10.80;9.50;;;;;;;4.92;66.98;95985.89;110547;1245;69044;-69
2022/02/07 09:10:00;;;;;;;6.90;5.20;;;;;;;4.93;66.97;95985.30;110593;1244;70001;-69
2022/02/07 09:12:29;;;;;;;5.20;4.20;;;;;;;4.91;67.11;95981.25;110516;1244;60430;-69
2022/02/07 09:15:17;;;;;;;5.90;5.10;;;;;;;4.95;66.89;95979.08;110241;1247;60503;-68
2022/02/07 09:17:46;;;;;;;6.10;4.40;;;;;;;4.94;67.27;95972.08;110296;1247;71653;-68
2022/02/07 09:20:14;;;;;;;7.30;5.40;;;;;;;4.99;67.09;95966.55;110343;1244;68654;-68
2022/02/07 09:22:43;;;;;;;6.50;5.30;;;;;;;5.03;67.02;95961.05;110550;1244;69214;-68
2022/02/07 09:25:12;;;;;;;8.90;6.50;;;;;;;5.03;66.98;95959.01;110437;1247;60427;-67
2022/02/07 09:27:41;;;;;;;8.50;4.90;;;;;;;4.98;67.43;95954.86;110508;1247;60482;-69
2022/02/07 09:30:10;;;;;;;6.60;5.40;;;;;;;5.02;67.07;95946.61;110517;1247;72257;-68
2022/02/07 09:32:39;;;;;;;8.50;7.60;;;;;;;5.04;66.84;95945.14;110329;1246;68427;-68
2022/02/07 09:35:08;;;;;;;7.60;5.90;;;;;;;5.04;66.98;95948.20;110251;1247;68618;-68
2022/02/07 09:37:38;;;;;;;8.50;6.60;;;;;;;5.02;67.26;95946.42;110253;1247;60465;-68
2022/02/07 09:40:08;;;;;;;7.30;5.60;;;;;;;5.01;67.39;95946.05;110236;1247;60526;-69
2022/02/07 09:42:42;;;;;;;;;;;;;;;5.05;67.05;95943.32;110539;1247;72927;-69
2022/02/07 09:45:18;;;;;;;7.90;5.70;;;;;;;5.08;66.96;95936.69;110530;1247;68572;-68
2022/02/07 09:47:47;;;;;;;8.10;7.20;;;;;;;5.10;67.10;95930.17;110451;1247;68615;-69
2022/02/07 09:50:15;;;;;;;5.90;5.00;;;;;;;5.09;67.18;95927.24;110510;1247;60499;-69
2022/02/07 09:52:44;;;;;;;7.80;6.70;;;;;;;5.14;66.88;95924.55;110562;1247;60547;-68
2022/02/07 09:55:13;;;;;;;7.00;5.30;;;;;;;5.16;67.01;95920.06;110519;1244;72333;-68
2022/02/07 09:57:42;;;;;;;18.00;11.60;;;;;;;5.18;66.83;95917.15;110153;1247;67799;-71
2022/02/07 10:00:18;;;;;;;8.70;7.10;;;;;;;5.18;66.97;95914.88;110213;1248;69519;-70
2022/02/07 10:03:05;;;;;;;6.10;5.50;;;;;;;5.21;66.83;95910.69;110388;1247;60536;-68
2022/02/07 10:05:48;;;;;;;7.90;5.80;;;;;;;5.26;66.73;95903.56;110399;1244;60415;-69
2022/02/07 10:14:10;;;;;;;9.60;7.10;;;;;;;5.39;66.95;95890.88;109907;1247;68691;-69
2022/02/07 10:16:49;;;;;;;8.40;5.70;;;;;;;5.36;67.64;95887.46;110204;1247;60495;-68
2022/02/07 10:22:07;;;;;;;12.90;8.30;;;;;;;5.33;68.37;95875.95;110237;1247;72951;-69
2022/02/07 10:47:24;;;;;;;8.50;7.70;;;;;;;5.36;72.98;95856.04;110254;1245;60499;-68
2022/02/07 10:50:04;;;;;;;9.30;7.60;;;;;;;5.33;73.48;95851.89;110369;1244;71574;-69
2022/02/07 10:52:56;;;;;;;10.20;8.10;;;;;;;5.37;72.70;95851.10;110366;1247;68383;-69
2022/02/07 10:55:35;;;;;;;9.80;8.30;;;;;;;5.35;74.49;95852.58;110162;1247;69675;-68
2022/02/07 10:58:06;;;;;;;7.90;6.10;;;;;;;5.37;73.42;95849.15;110552;1246;60471;-69
2022/02/07 11:00:39;;;;;;;6.70;6.00;;;;;;;5.43;72.20;95845.80;110563;1244;60487;-68
2022/02/07 11:03:17;;;;;;;8.30;6.80;;;;;;;5.50;71.84;95846.27;110387;1245;72341;-68
2022/02/07 11:05:50;;;;;;;8.80;7.00;;;;;;;5.53;71.97;95846.70;110460;1244;69016;-68
2022/02/07 11:08:25;;;;;;;9.50;8.60;;;;;;;5.55;72.16;95842.75;110433;1244;69414;-69
2022/02/07 11:16:37;;;;;;;25.70;15.90;;;;;;;5.65;72.20;95834.10;110516;1245;72377;-69
2022/02/07 11:19:36;;;;;;;16.20;13.20;;;;;;;5.61;72.72;95826.36;110464;1244;67630;-68
2022/02/07 11:27:51;;;;;;;10.20;8.10;;;;;;;5.42;73.98;95814.30;110498;1244;60520;-69
2022/02/07 11:30:35;;;;;;;8.90;7.10;;;;;;;5.38;74.14;95813.55;110441;1244;72603;-68
2022/02/07 11:33:06;;;;;;;7.90;6.40;;;;;;;5.32;74.19;95810.66;110505;1244;68434;-70
2022/02/07 11:35:50;;;;;;;8.90;6.50;;;;;;;5.31;74.64;95806.95;110461;1244;69600;-68
2022/02/07 11:38:21;;;;;;;8.70;6.80;;;;;;;5.24;75.32;95796.79;110568;1244;60510;-71
2022/02/07 11:41:05;;;;;;;8.70;6.30;;;;;;;5.29;74.79;95801.24;110244;1244;60532;-70
2022/02/07 11:43:37;;;;;;;7.90;6.50;;;;;;;5.29;75.42;95801.30;110232;1247;73016;-69
2022/02/07 11:46:12;;;;;;;8.80;7.50;;;;;;;5.24;75.74;95798.85;110536;1244;67898;-69
2022/02/07 11:48:54;;;;;;;6.60;5.60;;;;;;;5.29;75.79;95796.44;110211;1247;69763;-68
2022/02/07 11:51:29;;;;;;;11.40;8.70;;;;;;;5.38;74.67;95794.52;110474;1245;60881;-68
2022/02/07 11:53:59;;;;;;;7.40;5.80;;;;;;;5.46;75.49;95792.88;110581;1244;60528;-68
2022/02/07 11:56:47;;;;;;;8.00;5.60;;;;;;;5.55;74.78;95788.20;110245;1245;73076;-69
2022/02/07 11:59:28;;;;;;;;;;;;;;;5.61;74.53;95780.65;110414;1247;69175;-68
2022/02/07 12:02:08;;;;;;;7.10;5.10;;;;;;;5.65;74.18;95778.42;110415;1245;69217;-69
2022/02/07 12:04:45;;;;;;;6.60;5.80;;;;;;;5.56;74.19;95779.08;110550;1244;60542;-70
2022/02/07 12:07:14;;;;;;;7.70;5.20;;;;;;;5.58;74.57;95777.06;110228;1245;60911;-70
2022/02/07 12:10:03;;;;;;;6.90;5.90;;;;;;;5.59;74.59;95776.98;110488;1244;72838;-69
2022/02/07 12:12:53;;;;;;;6.40;5.20;;;;;;;5.63;74.45;95776.16;110442;1244;69071;-68
2022/02/07 12:15:36;;;;;;;4.90;4.30;;;;;;;5.75;73.99;95773.67;110546;1244;70109;-68
2022/02/07 12:18:14;;;;;;;4.80;4.00;;;;;;;5.79;74.36;95773.48;110439;1247;60507;-69
2022/02/07 12:20:45;;;;;;;5.80;4.10;;;;;;;5.85;73.93;95772.98;110541;1244;60499;-69
2022/02/07 12:23:28;;;;;;;5.30;4.20;;;;;;;5.91;73.35;95773.90;110618;1244;72344;-69
2022/02/07 12:26:16;;;;;;;4.70;4.10;;;;;;;6.00;72.88;95772.37;110569;1244;68537;-69
2022/02/07 12:28:48;;;;;;;4.30;3.40;;;;;;;5.85;73.31;95772.86;110331;1246;67482;-69
2022/02/07 12:31:20;;;;;;;4.80;3.70;;;;;;;5.93;72.95;95769.09;110468;1244;60535;-69
2022/02/07 12:34:01;;;;;;;5.30;3.40;;;;;;;5.93;72.81;95769.12;110423;1245;60485;-68
2022/02/07 12:36:36;;;;;;;4.10;3.10;;;;;;;5.99;72.70;95764.52;110522;1244;72993;-68
2022/02/07 12:39:13;;;;;;;5.10;3.80;;;;;;;6.02;72.58;95771.20;110537;1244;67585;-70
2022/02/07 12:41:43;;;;;;;4.90;3.70;;;;;;;6.03;72.57;95772.65;110567;1245;69232;-71
2022/02/07 12:44:18;;;;;;;5.80;3.50;;;;;;;5.97;72.51;95775.69;110581;1244;60507;-71
2022/02/07 12:46:50;;;;;;;5.10;3.40;;;;;;;6.00;72.33;95777.18;110510;1244;60533;-71
2022/02/07 12:49:23;;;;;;;3.80;3.40;;;;;;;5.98;72.08;95779.78;110607;1244;72678;-71
2022/02/07 12:51:52;;;;;;;5.60;4.70;;;;;;;5.86;72.64;95784.89;110515;1244;66768;-68
2022/02/07 12:54:22;;;;;;;4.70;4.00;;;;;;;5.88;72.03;95790.05;110237;1247;69843;-68
2022/02/07 12:56:50;;;;;;;4.80;4.10;;;;;;;5.79;72.20;95788.91;110545;1244;60543;-69
2022/02/07 12:59:19;;;;;;;5.60;4.10;;;;;;;5.79;71.82;95787.52;110527;1244;60947;-68
2022/02/07 13:01:49;;;;;;;6.70;4.50;;;;;;;5.79;72.00;95783.65;110464;1244;73070;-71
2022/02/07 13:04:22;;;;;;;5.20;4.00;;;;;;;5.82;71.97;95782.45;110580;1244;69224;-70
2022/02/07 13:06:55;;;;;;;6.00;4.10;;;;;;;5.79;71.61;95785.05;110510;1244;68542;-69
2022/02/07 13:09:28;;;;;;;7.20;5.00;;;;;;;5.78;71.90;95783.39;110510;1244;60870;-68
2022/02/07 13:12:02;;;;;;;6.40;4.70;;;;;;;5.74;72.05;95788.59;110584;1244;60490;-69
2022/02/07 13:14:45;;;;;;;6.70;5.10;;;;;;;5.64;72.34;95795.45;110327;1244;72490;-69
2022/02/07 13:17:15;;;;;;;5.20;4.60;;;;;;;5.58;72.20;95799.70;110558;1244;68668;-69
2022/02/07 13:19:49;;;;;;;6.60;4.90;;;;;;;5.53;72.29;95799.05;110195;1244;69554;-69
2022/02/07 13:22:21;;;;;;;4.80;4.30;;;;;;;5.49;72.30;95805.08;110547;1244;60494;-67
2022/02/07 13:24:51;;;;;;;4.70;3.70;;;;;;;5.42;72.70;95808.55;110337;1247;60533;-68
2022/02/07 13:27:20;;;;;;;4.40;3.80;;;;;;;5.41;72.28;95809.11;110468;1245;72796;-71
2022/02/07 13:29:54;;;;;;;5.10;4.10;;;;;;;5.43;72.14;95811.41;110530;1244;68903;-71
2022/02/07 13:32:26;;;;;;;5.60;3.90;;;;;;;5.40;72.19;95809.04;110522;1244;69374;-68
2022/02/07 13:35:13;;;;;;;4.30;2.80;;;;;;;5.43;72.11;95809.17;110573;1244;60486;-68
2022/02/07 13:37:43;;;;;;;3.80;3.30;;;;;;;5.35;71.72;95813.45;110484;1244;60495;-68
2022/02/07 13:40:13;;;;;;;;;;;;;;;5.34;72.15;95811.25;110553;1244;72153;-69
2022/02/07 13:42:47;;;;;;;6.70;4.40;;;;;;;5.17;72.85;95814.41;110624;1244;68563;-68
2022/02/07 13:45:28;;;;;;;7.40;3.90;;;;;;;5.06;73.13;95820.65;110601;1244;69221;-68
2022/02/07 13:47:58;;;;;;;5.00;3.90;;;;;;;5.06;73.38;95816.64;110546;1244;60538;-68
2022/02/07 13:50:36;;;;;;;6.20;3.80;;;;;;;4.93;73.85;95821.59;110595;1244;60473;-68
2022/02/07 13:53:06;;;;;;;5.30;3.90;;;;;;;4.89;74.41;95822.64;110284;1246;72737;-68
2022/02/07 13:55:38;;;;;;;3.90;3.30;;;;;;;4.83;74.69;95822.58;110409;1244;68991;-69
2022/02/07 13:58:11;;;;;;;10.40;5.60;;;;;;;4.95;73.79;95830.06;110561;1244;68694;-68
2022/02/07 14:00:49;;;;;;;4.20;3.60;;;;;;;4.98;73.77;95837.45;110368;1244;60875;-68
2022/02/07 14:03:32;;;;;;;7.10;4.50;;;;;;;5.00;73.16;95839.71;110537;1244;60531;-68
2022/02/07 14:06:15;;;;;;;4.00;3.30;;;;;;;5.07;72.12;95841.81;110565;1244;72383;-71
2022/02/07 14:08:51;;;;;;;8.90;6.80;;;;;;;5.11;71.87;95852.72;110576;1244;69187;-71
2022/02/07 14:11:24;;;;;;;7.00;5.40;;;;;;;5.09;71.63;95850.27;110292;1246;70220;-71
2022/02/07 14:13:56;;;;;;;3.90;3.50;;;;;;;5.08;71.51;95857.08;110588;1244;60503;-72
2022/02/07 14:16:26;;;;;;;4.50;3.80;;;;;;;5.06;71.27;95861.23;110573;1245;60485;-68
2022/02/07 14:18:55;;;;;;;;;;;;;;;5.01;71.47;95871.45;110468;1244;72885;-68
2022/02/07 14:21:31;;;;;;;5.20;3.90;;;;;;;4.94;71.44;95881.96;110535;1244;67885;-68
2022/02/07 14:24:00;;;;;;;7.00;6.30;;;;;;;4.83;72.10;95886.09;110559;1244;69381;-68
2022/02/07 14:26:49;;;;;;;6.20;4.90;;;;;;;4.81;71.89;95886.56;110463;1244;60545;-68